Time;durP1;ratioP1;P1;durP2;ratioP2;P2;SDS_P1;SDS_P2;PMS_P1;PMS_P2;Temp;Humidity;BMP_temperature;BMP_pressure;BME280_temperature;BME280_humidity;BME280_pressure;Samples;Min_cycle;Max_cycle;Signal;HPM_P1;HPM_P2
2023/08/27 00:00:10;;;;;;;119.60;7.77;;;;;;;26.03;57.44;99027.78;7286565;19;129314;-35
2023/08/27 00:02:36;;;;;;;140.80;8.70;;;;;;;25.90;56.56;99003.84;7290080;19;129931;-36
2023/08/27 00:05:02;;;;;;;199.50;10.73;;;;;;;26.02;57.55;99026.16;7285632;19;132116;-36
2023/08/27 00:07:27;;;;;;;142.67;8.80;;;;;;;26.05;56.93;99031.03;7289131;19;130312;-36
2023/08/27 00:09:52;;;;;;;128.73;7.67;;;;;;;26.04;56.42;99026.78;7290604;19;129139;-35
2023/08/27 00:12:18;;;;;;;162.80;9.87;;;;;;;25.91;56.64;99004.69;7289815;19;130102;-36
2023/08/27 00:14:43;;;;;;;262.23;14.43;;;;;;;26.00;56.87;99030.75;7269942;19;130938;-35
2023/08/27 00:17:08;;;;;;;203.90;12.23;;;;;;;25.97;57.05;99015.31;7277112;19;132563;-35
2023/08/27 00:19:34;;;;;;;182.77;11.20;;;;;;;26.03;57.48;99033.03;7273216;19;130111;-35
2023/08/27 00:21:59;;;;;;;141.33;8.83;;;;;;;26.03;57.55;99024.34;7273609;19;131223;-36
2023/08/27 00:24:25;;;;;;;252.00;14.10;;;;;;;26.01;57.30;99016.63;7272336;19;130229;-35
2023/08/27 00:26:51;;;;;;;160.63;9.83;;;;;;;26.02;56.66;99012.97;7278344;19;131056;-35
2023/08/27 00:29:19;;;;;;;103.18;6.88;;;;;;;26.03;57.15;99017.22;7291078;19;129668;-35
2023/08/27 00:31:44;;;;;;;139.48;8.32;;;;;;;26.02;56.58;99018.25;7291165;19;129990;-35
2023/08/27 00:34:10;;;;;;;176.00;10.17;;;;;;;25.99;56.86;99007.22;7286843;19;130639;-35
2023/08/27 00:36:35;;;;;;;137.03;8.57;;;;;;;26.02;57.42;99018.25;7285323;19;130275;-35
2023/08/27 00:39:00;;;;;;;63.17;4.80;;;;;;;26.00;56.88;99008.88;7289678;19;129446;-35
2023/08/27 00:41:26;;;;;;;143.63;8.87;;;;;;;26.00;56.65;99012.31;7289316;19;129573;-37
2023/08/27 00:43:51;;;;;;;239.27;13.97;;;;;;;26.00;57.16;99008.88;7287260;19;130778;-36
2023/08/27 00:46:16;;;;;;;214.77;12.57;;;;;;;26.00;57.32;99006.25;7285854;19;131861;-39
2023/08/27 00:48:42;;;;;;;120.37;7.93;;;;;;;26.01;57.17;99000.81;7286368;19;129139;-32
2023/08/27 00:51:08;;;;;;;159.53;9.20;;;;;;;26.02;57.06;99015.63;7289070;19;130466;-35
2023/08/27 00:53:34;;;;;;;129.57;8.37;;;;;;;26.00;56.95;99009.66;7287935;19;130142;-36
2023/08/27 00:55:59;;;;;;;115.13;7.68;;;;;;;25.99;57.27;99005.41;7285900;19;131118;-34
2023/08/27 00:58:25;;;;;;;75.97;5.13;;;;;;;25.88;57.16;98989.25;7287067;19;129879;-36
2023/08/27 01:00:51;;;;;;;146.63;8.73;;;;;;;26.01;57.68;99005.22;7290179;19;133512;-38
2023/08/27 01:03:16;;;;;;;192.13;11.65;;;;;;;26.00;57.25;99004.41;7297842;19;131412;-35
2023/08/27 01:05:43;;;;;;;167.63;10.33;;;;;;;26.00;56.53;98993.88;7291730;19;130288;-33
2023/08/27 01:08:24;;;;;;;123.95;7.88;;;;;;;25.84;59.70;98972.16;7295933;19;129530;-36
2023/08/27 01:11:12;;;;;;;214.18;12.70;;;;;;;25.98;59.67;98998.50;7292617;19;129056;-33
2023/08/27 01:13:51;;;;;;;;;;;;;;;26.03;60.13;98988.25;7280265;19;132038;-37
2023/08/27 01:16:19;;;;;;;181.18;10.82;;;;;;;26.00;57.42;98983.31;7279788;19;131018;-39
2023/08/27 01:18:45;;;;;;;234.35;14.05;;;;;;;25.97;57.06;98973.16;7280594;19;130114;-34
2023/08/27 01:21:18;;;;;;;154.40;10.00;;;;;;;25.99;58.86;98976.44;7282387;19;135635;-38
2023/08/27 01:23:45;;;;;;;207.63;12.70;;;;;;;25.99;56.77;98965.06;7279994;19;131001;-34
2023/08/27 01:26:12;;;;;;;;;;;;;;;26.02;59.91;98964.72;7277028;19;132384;-33
2023/08/27 01:28:45;;;;;;;209.05;12.25;;;;;;;26.00;58.76;98961.47;7280142;19;130852;-36
2023/08/27 01:31:15;;;;;;;202.43;11.90;;;;;;;25.94;57.67;98960.34;7279985;19;130048;-36
2023/08/27 01:33:41;;;;;;;197.10;11.85;;;;;;;25.98;56.47;98964.25;7278860;19;133058;-37
2023/08/27 01:36:08;;;;;;;139.73;8.80;;;;;;;25.97;57.04;98975.78;7288878;19;131520;-38
2023/08/27 01:38:34;;;;;;;193.13;10.95;;;;;;;25.97;56.98;98973.16;7294016;19;129383;-35
2023/08/27 01:40:59;;;;;;;124.17;8.00;;;;;;;25.99;56.63;98979.06;7293718;19;132339;-34
2023/08/27 01:43:25;;;;;;;156.10;9.70;;;;;;;25.98;56.45;98974.78;7295643;19;130459;-38
2023/08/27 01:45:50;;;;;;;135.83;8.67;;;;;;;25.97;56.97;98978.44;7289672;19;130875;-35
2023/08/27 01:48:15;;;;;;;152.20;8.93;;;;;;;25.98;56.73;98973.97;7292819;19;129179;-32
2023/08/27 01:50:41;;;;;;;169.77;10.43;;;;;;;25.84;57.22;98954.56;7293832;19;129187;-37
2023/08/27 01:53:06;;;;;;;155.63;9.40;;;;;;;25.94;57.15;98973.53;7291332;19;131144;-37
2023/08/27 01:55:31;;;;;;;179.80;10.77;;;;;;;25.95;56.82;98972.53;7292398;19;130968;-37
2023/08/27 01:57:57;;;;;;;174.83;9.93;;;;;;;25.95;56.90;98974.34;7295804;19;129607;-38
2023/08/27 02:00:22;;;;;;;67.20;4.87;;;;;;;25.95;57.01;98980.41;7296802;19;129109;-34
2023/08/27 02:02:48;;;;;;;112.67;7.53;;;;;;;25.95;56.53;98974.34;7290278;19;130367;-35
2023/08/27 02:05:13;;;;;;;153.90;9.27;;;;;;;25.95;56.71;98974.34;7291574;19;129254;-38
2023/08/27 02:07:40;;;;;;;122.87;7.93;;;;;;;25.91;56.67;98963.38;7294003;19;128901;-35
2023/08/27 02:10:07;;;;;;;142.48;9.10;;;;;;;25.93;56.82;98960.53;7293385;19;129372;-34
2023/08/27 02:12:32;;;;;;;97.00;6.70;;;;;;;25.81;56.58;98940.94;7293245;19;130765;-39
2023/08/27 02:14:58;;;;;;;163.50;9.90;;;;;;;25.95;56.68;98975.16;7293419;19;130613;-36
2023/08/27 02:17:23;;;;;;;128.67;8.27;;;;;;;25.95;56.84;98969.09;7294658;19;129804;-33
2023/08/27 02:19:48;;;;;;;123.57;7.80;;;;;;;25.95;56.91;98969.88;7293902;19;129519;-33
2023/08/27 02:22:14;;;;;;;82.70;5.43;;;;;;;25.93;57.11;98965.81;7292063;19;131044;-38
2023/08/27 02:24:39;;;;;;;200.07;11.23;;;;;;;25.91;57.20;98939.66;7291419;19;130458;-38
2023/08/27 02:27:05;;;;;;;174.67;10.57;;;;;;;25.93;57.19;98926.31;7295190;19;131250;-36
2023/08/27 02:29:30;;;;;;;122.30;7.43;;;;;;;25.94;57.85;98928.75;7294389;19;132777;-39
2023/08/27 02:31:56;;;;;;;118.43;7.53;;;;;;;25.81;56.61;98907.50;7291860;19;130155;-35
2023/08/27 02:34:21;;;;;;;135.33;7.67;;;;;;;25.92;57.13;98932.56;7291159;19;129145;-35
2023/08/27 02:36:46;;;;;;;136.20;8.43;;;;;;;25.92;56.68;98951.00;7292177;19;129938;-37
2023/08/27 02:39:12;;;;;;;155.37;9.30;;;;;;;25.90;57.24;98940.63;7294103;19;132538;-38
2023/08/27 02:41:37;;;;;;;124.60;7.53;;;;;;;25.91;57.38;98937.03;7294034;19;131174;-39
2023/08/27 02:44:03;;;;;;;169.07;9.43;;;;;;;25.92;57.16;98935.19;7290331;19;129375;-34
2023/08/27 02:46:28;;;;;;;135.13;7.90;;;;;;;25.93;56.74;98934.22;7293154;19;129000;-38
2023/08/27 02:48:53;;;;;;;151.43;8.87;;;;;;;25.92;56.59;98917.56;7293814;19;133972;-36
2023/08/27 02:51:19;;;;;;;146.03;8.67;;;;;;;25.80;56.70;98897.97;7292041;19;129644;-37
2023/08/27 02:53:44;;;;;;;204.73;11.23;;;;;;;25.92;56.84;98919.38;7289641;19;129565;-34
2023/08/27 02:56:11;;;;;;;156.50;8.90;;;;;;;25.93;56.58;98923.66;7288395;19;129523;-34
2023/08/27 02:58:36;;;;;;;132.38;8.27;;;;;;;25.90;57.12;98931.94;7288366;19;130097;-37
2023/08/27 03:01:01;;;;;;;148.03;8.63;;;;;;;25.91;56.76;98931.75;7292626;19;131349;-38
2023/08/27 03:03:27;;;;;;;148.97;8.67;;;;;;;25.90;56.78;98916.94;7293167;19;129754;-33
2023/08/27 03:05:52;;;;;;;64.60;4.63;;;;;;;25.90;56.45;98905.59;7289655;19;129433;-35
2023/08/27 03:08:17;;;;;;;82.47;5.73;;;;;;;25.89;56.59;98904.78;7291272;19;129710;-37
2023/08/27 03:10:43;;;;;;;195.23;11.17;;;;;;;25.90;56.85;98890.59;7292341;19;129495;-37
2023/08/27 03:13:08;;;;;;;194.47;11.70;;;;;;;25.88;56.28;98884.72;7285290;19;130680;-36
2023/08/27 03:15:34;;;;;;;217.07;12.77;;;;;;;25.88;56.36;98890.00;7273465;19;130444;-35
2023/08/27 03:17:59;;;;;;;96.47;5.97;;;;;;;25.89;56.44;98878.44;7288901;19;129689;-35
2023/08/27 03:20:24;;;;;;;229.00;13.07;;;;;;;25.89;56.44;98878.44;7288408;19;130149;-38
2023/08/27 03:22:50;;;;;;;241.70;13.67;;;;;;;25.90;56.22;98877.44;7275642;19;132002;-38
2023/08/27 03:25:15;;;;;;;117.57;7.27;;;;;;;25.88;56.59;98884.72;7289847;19;131669;-37
2023/08/27 03:27:40;;;;;;;132.87;7.90;;;;;;;25.89;56.74;98885.50;7289877;19;129323;-34
2023/08/27 03:30:06;;;;;;;170.83;9.20;;;;;;;25.88;56.04;98879.44;7288049;19;130646;-33
2023/08/27 03:32:31;;;;;;;102.67;6.17;;;;;;;25.87;56.57;98880.44;7290931;19;131294;-37
2023/08/27 03:34:57;;;;;;;142.23;8.30;;;;;;;25.88;56.32;98889.16;7287228;19;130098;-38
2023/08/27 03:37:22;;;;;;;219.20;12.73;;;;;;;25.87;55.62;98888.34;7289696;19;129687;-36
2023/08/27 03:39:48;;;;;;;147.53;8.33;;;;;;;25.87;56.43;98877.81;7288905;19;129390;-34
2023/08/27 03:42:13;;;;;;;118.03;7.03;;;;;;;25.84;55.96;98883.44;7293181;19;130138;-38
2023/08/27 03:44:38;;;;;;;138.67;8.13;;;;;;;25.87;56.98;98898.88;7288840;19;129862;-38
2023/08/27 03:47:04;;;;;;;95.77;5.87;;;;;;;25.83;56.40;98902.88;7291599;19;129480;-35
2023/08/27 03:49:29;;;;;;;157.10;8.97;;;;;;;25.84;55.98;98907.16;7291681;19;130018;-38
2023/08/27 03:51:55;;;;;;;124.77;7.57;;;;;;;25.85;56.46;98903.50;7292206;19;130483;-33
2023/08/27 03:54:20;;;;;;;104.40;6.73;;;;;;;25.85;56.29;98900.88;7288614;19;129358;-34
2023/08/27 03:56:45;;;;;;;140.17;7.77;;;;;;;25.85;56.24;98905.34;7289295;19;129941;-37
2023/08/27 03:59:11;;;;;;;149.27;8.93;;;;;;;25.86;56.35;98897.25;7290764;19;130130;-35
2023/08/27 04:01:36;;;;;;;135.77;8.07;;;;;;;25.85;56.07;98903.50;7290765;19;129419;-33
2023/08/27 04:04:03;;;;;;;170.53;10.83;;;;;;;25.82;56.29;98893.34;7288715;19;129626;-34
2023/08/27 04:06:28;;;;;;;117.88;6.55;;;;;;;25.73;55.94;98889.19;7286010;19;129352;-36
2023/08/27 04:08:54;;;;;;;138.27;8.13;;;;;;;25.82;56.39;98906.50;7289340;19;130803;-38
2023/08/27 04:11:19;;;;;;;111.67;6.80;;;;;;;25.83;56.23;98912.59;7288136;19;131275;-35
2023/08/27 04:13:44;;;;;;;138.17;8.23;;;;;;;25.84;56.13;98903.69;7288924;19;130194;-33
2023/08/27 04:16:11;;;;;;;128.73;7.30;;;;;;;25.82;55.81;98901.25;7288850;19;129081;-36
2023/08/27 04:18:37;;;;;;;148.85;8.43;;;;;;;25.82;56.26;98901.25;7290715;19;129871;-38
2023/08/27 04:21:04;;;;;;;132.40;7.87;;;;;;;25.82;55.57;98906.50;7290371;19;130441;-36
2023/08/27 04:23:29;;;;;;;164.38;9.43;;;;;;;25.82;56.46;98906.50;7288059;19;130226;-37
2023/08/27 04:25:55;;;;;;;139.27;7.93;;;;;;;25.82;56.16;98903.88;7287648;19;130764;-36
2023/08/27 04:28:21;;;;;;;134.27;7.97;;;;;;;25.81;55.51;98888.25;7290635;19;131409;-33
2023/08/27 04:30:48;;;;;;;73.90;4.82;;;;;;;25.80;56.54;98882.16;7288758;19;130809;-35
2023/08/27 04:33:14;;;;;;;115.93;6.72;;;;;;;25.81;56.14;98883.81;7287003;19;128963;-35
2023/08/27 04:35:39;;;;;;;185.97;10.20;;;;;;;25.80;56.45;98884.78;7287300;19;130045;-33
2023/08/27 04:38:05;;;;;;;137.10;8.17;;;;;;;25.81;56.23;98875.91;7290438;19;129559;-34
2023/08/27 04:40:31;;;;;;;169.38;9.85;;;;;;;25.81;56.47;98883.81;7295354;19;130243;-39
2023/08/27 04:42:59;;;;;;;183.13;10.63;;;;;;;25.82;56.93;98882.81;7296969;19;132323;-38
2023/08/27 04:45:25;;;;;;;144.90;8.00;;;;;;;25.69;55.85;98864.22;7295266;19;129315;-38
2023/08/27 04:47:50;;;;;;;80.97;5.43;;;;;;;25.80;55.84;98882.16;7297542;19;130270;-37
2023/08/27 04:50:16;;;;;;;151.37;8.87;;;;;;;25.78;55.93;98878.94;7294973;19;130565;-38
2023/08/27 04:52:41;;;;;;;155.77;8.73;;;;;;;25.80;55.45;98878.72;7295007;19;131211;-33
2023/08/27 04:55:07;;;;;;;131.40;7.60;;;;;;;25.72;56.38;98866.47;7295082;19;129344;-34
2023/08/27 04:57:37;;;;;;;80.00;5.23;;;;;;;25.79;57.07;98880.53;7298857;19;130585;-38
2023/08/27 05:00:08;;;;;;;89.32;5.40;;;;;;;25.77;57.64;98877.28;7296841;19;131981;-36
2023/08/27 05:02:36;;;;;;;145.82;8.32;;;;;;;25.78;56.94;98884.19;7294939;19;130217;-38
2023/08/27 05:05:02;;;;;;;205.75;11.45;;;;;;;25.79;55.76;98884.97;7293677;19;129005;-35
2023/08/27 05:07:28;;;;;;;83.53;5.38;;;;;;;25.78;55.67;98878.94;7294304;19;130034;-37
2023/08/27 05:09:53;;;;;;;128.63;7.60;;;;;;;25.78;55.80;98873.66;7296607;19;130237;-38
2023/08/27 05:12:19;;;;;;;132.97;7.63;;;;;;;25.79;55.67;98863.91;7291157;19;129974;-34
2023/08/27 05:14:44;;;;;;;110.97;6.73;;;;;;;25.79;56.04;98867.38;7293257;19;129155;-35
2023/08/27 05:17:10;;;;;;;146.03;8.43;;;;;;;25.79;55.94;98864.75;7293955;19;129472;-37
2023/08/27 05:19:35;;;;;;;155.30;9.07;;;;;;;25.78;56.18;98854.41;7296042;19;130337;-38
2023/08/27 05:22:01;;;;;;;198.40;11.10;;;;;;;25.78;55.73;98852.59;7294809;19;129089;-35
2023/08/27 05:24:27;;;;;;;172.32;9.43;;;;;;;25.79;55.83;98854.22;7291542;19;129487;-36
2023/08/27 05:26:52;;;;;;;135.23;8.43;;;;;;;25.76;56.08;98849.31;7292936;19;129990;-37
2023/08/27 05:29:17;;;;;;;151.27;8.67;;;;;;;25.79;56.44;98850.75;7296377;19;130721;-39
2023/08/27 05:31:43;;;;;;;172.50;9.83;;;;;;;25.77;56.02;98835.13;7296144;19;131982;-38
2023/08/27 05:34:08;;;;;;;165.53;9.10;;;;;;;25.76;55.65;98830.06;7293025;19;129596;-33
2023/08/27 05:36:34;;;;;;;73.13;4.93;;;;;;;25.75;56.21;98847.66;7293304;19;130491;-35
2023/08/27 05:38:59;;;;;;;88.20;5.67;;;;;;;25.77;55.37;98847.50;7293826;19;129756;-37
2023/08/27 05:41:24;;;;;;;210.43;11.17;;;;;;;25.73;56.22;98847.06;7295669;19;130064;-36
2023/08/27 05:43:50;;;;;;;166.83;10.33;;;;;;;25.77;55.55;98845.66;7293168;19;131520;-36
2023/08/27 05:46:15;;;;;;;129.57;8.07;;;;;;;25.75;55.87;98857.41;7293391;19;130576;-36
2023/08/27 05:48:40;;;;;;;149.97;9.23;;;;;;;25.76;55.81;98859.84;7290643;19;130361;-34
2023/08/27 05:51:06;;;;;;;140.60;7.97;;;;;;;25.76;56.04;98865.13;7296100;19;129079;-35
2023/08/27 05:53:32;;;;;;;104.47;6.50;;;;;;;25.75;56.06;98862.66;7293177;19;129709;-36
2023/08/27 05:55:57;;;;;;;97.07;5.93;;;;;;;25.71;55.60;98856.94;7292190;19;130091;-35
2023/08/27 05:58:22;;;;;;;138.83;8.07;;;;;;;25.76;55.86;98864.28;7293476;19;129942;-34
2023/08/27 06:00:54;;;;;;;206.53;11.33;;;;;;;25.75;57.35;98868.72;7296434;19;130514;-37
2023/08/27 06:03:20;;;;;;;144.57;8.55;;;;;;;25.74;55.98;98861.84;7295582;19;130145;-36
2023/08/27 06:05:46;;;;;;;139.18;8.32;;;;;;;25.73;55.86;98865.50;7290314;19;130359;-33
2023/08/27 06:08:11;;;;;;;116.83;7.03;;;;;;;25.73;56.17;98859.41;7293043;19;129980;-34
2023/08/27 06:10:36;;;;;;;163.70;9.13;;;;;;;25.73;56.47;98844.44;7294148;19;130114;-34
2023/08/27 06:13:03;;;;;;;122.23;7.43;;;;;;;25.73;56.11;98839.94;7293782;19;129051;-38
2023/08/27 06:15:28;;;;;;;;;;;;;;;25.75;58.92;98838.97;7282696;19;130156;-33
2023/08/27 06:17:54;;;;;;;166.00;9.45;;;;;;;25.75;56.04;98852.94;7290921;19;129999;-34
2023/08/27 06:20:20;;;;;;;171.77;9.37;;;;;;;25.73;55.74;98861.03;7296717;19;131230;-34
2023/08/27 06:22:45;;;;;;;210.53;12.93;;;;;;;25.61;55.98;98841.44;7291538;19;129566;-38
2023/08/27 06:25:11;;;;;;;147.27;8.83;;;;;;;25.71;56.40;98862.22;7292297;19;131048;-36
2023/08/27 06:27:37;;;;;;;150.10;8.53;;;;;;;25.59;56.36;98842.63;7292457;19;130310;-35
2023/08/27 06:30:03;;;;;;;150.73;8.37;;;;;;;25.71;55.82;98862.22;7293499;19;130054;-37
2023/08/27 06:32:28;;;;;;;160.17;9.70;;;;;;;25.71;56.95;98872.75;7294674;19;131936;-38
2023/08/27 06:34:54;;;;;;;113.03;6.70;;;;;;;25.68;56.29;98873.13;7289555;19;129979;-33
2023/08/27 06:37:20;;;;;;;203.45;11.30;;;;;;;25.72;55.85;98879.63;7290830;19;130399;-35
2023/08/27 06:39:45;;;;;;;136.57;7.93;;;;;;;25.67;56.08;98866.19;7288281;19;130059;-38
2023/08/27 06:42:12;;;;;;;143.57;8.97;;;;;;;25.72;55.79;98870.94;7294023;19;129254;-37
2023/08/27 06:44:38;;;;;;;142.50;8.38;;;;;;;25.71;56.13;98870.13;7290000;19;131198;-34
2023/08/27 06:47:03;;;;;;;176.80;9.97;;;;;;;25.70;56.41;98865.88;7290240;19;130235;-36
2023/08/27 06:49:29;;;;;;;149.17;8.73;;;;;;;25.71;56.23;98872.75;7292458;19;130027;-36
2023/08/27 06:51:54;;;;;;;114.80;7.50;;;;;;;25.70;56.42;98857.97;7292989;19;129390;-37
2023/08/27 06:54:20;;;;;;;104.83;6.80;;;;;;;25.70;56.32;98860.59;7286753;19;130790;-36
2023/08/27 06:56:45;;;;;;;182.50;10.20;;;;;;;25.69;56.10;98854.50;7291842;19;130152;-35
2023/08/27 06:59:11;;;;;;;146.60;8.37;;;;;;;25.64;55.94;98858.69;7290686;19;129329;-38
2023/08/27 07:01:36;;;;;;;106.47;6.70;;;;;;;25.69;56.13;98864.22;7293339;19;129854;-41
2023/08/27 07:04:03;;;;;;;199.60;12.83;;;;;;;25.69;56.47;98854.50;7290750;19;130262;-33
2023/08/27 07:06:29;;;;;;;;;;;;;;;25.64;58.91;98840.25;7289693;19;130307;-37
2023/08/27 07:08:55;;;;;;;138.63;8.18;;;;;;;25.71;56.02;98851.69;7284315;19;130243;-36
2023/08/27 07:11:20;;;;;;;134.70;7.77;;;;;;;25.56;55.75;98827.19;7282474;19;132979;-37
2023/08/27 07:13:46;;;;;;;216.93;12.93;;;;;;;25.70;55.85;98860.59;7276014;19;130078;-33
2023/08/27 07:16:11;;;;;;;254.97;14.23;;;;;;;25.60;56.72;98844.25;7276941;19;130325;-33
2023/08/27 07:18:38;;;;;;;195.73;11.43;;;;;;;25.69;56.21;98858.94;7275144;19;129296;-35
2023/08/27 07:21:03;;;;;;;;;;;;;;;25.73;58.55;98863.66;7273386;19;131372;-33
2023/08/27 07:23:28;;;;;;;247.37;13.80;;;;;;;25.70;57.15;98863.22;7274659;19;131579;-33
2023/08/27 07:25:54;;;;;;;188.67;10.70;;;;;;;25.70;56.56;98863.22;7275470;19;131460;-35
2023/08/27 07:28:19;;;;;;;222.50;12.67;;;;;;;25.69;56.51;98861.56;7276824;19;130762;-34
2023/08/27 07:30:48;;;;;;;163.30;9.50;;;;;;;25.70;57.61;98863.22;7286532;19;130022;-34
2023/08/27 07:33:14;;;;;;;164.65;9.40;;;;;;;25.70;56.92;98860.59;7285260;19;131728;-35
2023/08/27 07:35:39;;;;;;;180.07;10.20;;;;;;;25.57;56.69;98836.72;7288838;19;130645;-36
2023/08/27 07:38:05;;;;;;;198.53;12.53;;;;;;;25.70;57.00;98865.88;7287145;19;130667;-33
2023/08/27 07:40:34;;;;;;;77.37;4.93;;;;;;;25.70;57.75;98871.13;7288839;19;129601;-36
2023/08/27 07:43:00;;;;;;;188.13;10.32;;;;;;;25.71;56.63;98872.75;7284603;19;130704;-36
2023/08/27 07:45:25;;;;;;;241.57;13.90;;;;;;;25.70;56.86;98882.47;7279850;19;130484;-35
2023/08/27 07:47:51;;;;;;;153.73;9.07;;;;;;;25.71;56.80;98883.28;7287213;19;130155;-37
2023/08/27 07:50:16;;;;;;;217.80;12.77;;;;;;;25.71;57.56;98878.00;7285551;19;131483;-36
2023/08/27 07:52:41;;;;;;;198.77;10.93;;;;;;;25.69;56.78;98874.75;7286678;19;131480;-38
2023/08/27 07:55:07;;;;;;;211.10;12.63;;;;;;;25.71;56.66;98878.00;7275237;19;130682;-34
2023/08/27 07:57:33;;;;;;;79.00;5.40;;;;;;;25.72;56.80;98882.28;7282423;19;129473;-37
2023/08/27 07:59:58;;;;;;;201.47;11.67;;;;;;;25.68;57.15;98879.19;7271896;19;131679;-35
2023/08/27 08:02:23;;;;;;;270.00;15.40;;;;;;;25.56;57.03;98858.78;7282388;19;130791;-35
2023/08/27 08:04:49;;;;;;;152.33;8.90;;;;;;;25.68;56.95;98871.28;7271572;19;130683;-36
2023/08/27 08:07:14;;;;;;;154.03;9.33;;;;;;;25.69;56.90;98869.47;7276385;19;130995;-36
2023/08/27 08:09:40;;;;;;;190.13;11.60;;;;;;;25.72;56.92;98863.03;7270292;19;130815;-36
2023/08/27 08:12:05;;;;;;;273.37;15.50;;;;;;;25.70;57.35;98852.69;7267134;19;131916;-35
2023/08/27 08:14:31;;;;;;;191.13;11.03;;;;;;;25.70;58.21;98844.81;7271558;19;131009;-36
2023/08/27 08:16:57;;;;;;;200.80;12.13;;;;;;;25.68;57.05;98846.78;7266000;19;133370;-35
2023/08/27 08:19:22;;;;;;;234.07;14.30;;;;;;;25.70;57.91;98844.81;7267625;19;132328;-36
2023/08/27 08:21:48;;;;;;;220.30;12.60;;;;;;;25.71;57.54;98843.78;7269609;19;130685;-36
2023/08/27 08:24:13;;;;;;;219.87;13.40;;;;;;;25.56;57.78;98814.03;7270356;19;130600;-34
2023/08/27 08:26:38;;;;;;;150.40;9.37;;;;;;;25.70;57.34;98827.16;7268728;19;129474;-32
2023/08/27 08:29:04;;;;;;;213.40;12.47;;;;;;;25.74;57.28;98822.34;7274267;19;131373;-32
2023/08/27 08:31:29;;;;;;;212.10;11.87;;;;;;;25.55;57.90;98784.25;7275045;19;132913;-35
2023/08/27 08:33:54;;;;;;;208.10;13.47;;;;;;;25.69;58.23;98811.56;7276741;19;129876;-39
2023/08/27 08:36:20;;;;;;;234.97;13.30;;;;;;;25.69;58.02;98814.19;7269764;19;130332;-38
2023/08/27 08:38:45;;;;;;;181.17;10.23;;;;;;;25.72;58.20;98811.19;7269728;19;130379;-35
2023/08/27 08:41:15;;;;;;;157.03;9.87;;;;;;;25.72;57.54;98799.84;7272587;19;130164;-36
2023/08/27 08:43:51;;;;;;;220.65;13.55;;;;;;;25.76;58.97;98807.19;7273427;19;131006;-38
2023/08/27 08:46:18;;;;;;;207.53;12.27;;;;;;;25.58;59.33;98777.81;7273730;19;130440;-36
2023/08/27 08:48:49;;;;;;;139.63;8.68;;;;;;;25.72;59.96;98805.91;7278733;19;132349;-36
2023/08/27 08:51:19;;;;;;;170.30;9.70;;;;;;;25.60;58.15;98787.16;7288220;19;131209;-36
2023/08/27 08:53:49;;;;;;;188.57;10.75;;;;;;;25.75;58.34;98816.06;7284119;19;129273;-36
2023/08/27 08:56:21;;;;;;;141.52;8.60;;;;;;;25.62;59.42;98795.69;7285435;19;129399;-37
2023/08/27 08:58:52;;;;;;;155.85;9.80;;;;;;;25.75;59.47;98816.06;7279610;19;129866;-35
2023/08/27 09:01:19;;;;;;;121.53;8.00;;;;;;;25.74;58.74;98814.44;7284121;19;130609;-33
2023/08/27 09:03:46;;;;;;;166.45;9.82;;;;;;;25.75;58.78;98821.34;7282323;19;130371;-34
2023/08/27 09:06:11;;;;;;;161.80;10.05;;;;;;;25.73;58.47;98814.63;7279137;19;129834;-34
2023/08/27 09:08:38;;;;;;;144.90;9.03;;;;;;;25.73;58.91;98818.09;7283166;19;129275;-35
2023/08/27 09:11:03;;;;;;;219.88;12.85;;;;;;;25.64;59.34;98798.13;7272614;19;130145;-34
2023/08/27 09:13:29;;;;;;;263.67;15.17;;;;;;;25.72;59.35;98816.44;7273405;19;132324;-38
2023/08/27 09:15:55;;;;;;;149.73;9.55;;;;;;;25.72;59.27;98819.06;7273226;19;130283;-33
2023/08/27 09:18:20;;;;;;;213.87;12.43;;;;;;;25.72;59.48;98810.38;7271783;19;130299;-35
2023/08/27 09:20:47;;;;;;;208.73;12.37;;;;;;;25.70;59.30;98810.56;7273863;19;130573;-36
2023/08/27 09:23:13;;;;;;;204.90;11.68;;;;;;;25.71;59.27;98814.81;7279853;19;131352;-33
2023/08/27 09:25:42;;;;;;;192.00;11.70;;;;;;;25.73;60.04;98812.84;7279112;19;129946;-35
2023/08/27 09:28:07;;;;;;;162.00;9.70;;;;;;;25.68;59.42;98805.47;7289713;19;130290;-35
2023/08/27 09:30:33;;;;;;;151.30;9.20;;;;;;;25.73;59.38;98797.03;7289482;19;130027;-36
2023/08/27 09:33:00;;;;;;;158.67;9.50;;;;;;;25.72;59.58;98800.66;7294341;19;130693;-36
2023/08/27 09:35:38;;;;;;;159.38;10.13;;;;;;;25.72;60.73;98790.13;7289641;19;129637;-36
2023/08/27 09:38:04;;;;;;;74.75;5.43;;;;;;;25.73;59.07;98793.56;7287535;19;131355;-37
2023/08/27 09:40:29;;;;;;;171.80;10.80;;;;;;;25.71;59.95;98809.56;7286784;19;131029;-38
2023/08/27 09:43:09;;;;;;;176.03;10.77;;;;;;;25.69;61.19;98801.03;7290663;19;130869;-38
2023/08/27 09:45:36;;;;;;;251.95;15.13;;;;;;;25.73;59.57;98804.94;7286576;19;131620;-35
2023/08/27 09:48:02;;;;;;;;;;;;;;;25.73;60.91;98804.09;7288554;19;130122;-36
2023/08/27 09:50:30;;;;;;;171.00;10.75;;;;;;;25.71;59.32;98804.28;7291371;19;131201;-36
2023/08/27 09:53:11;;;;;;;189.18;10.90;;;;;;;25.73;60.82;98802.28;7285490;19;131288;-36
2023/08/27 09:55:37;;;;;;;193.35;12.32;;;;;;;25.72;59.29;98805.91;7282305;19;131292;-35
2023/08/27 09:58:07;;;;;;;160.13;9.73;;;;;;;25.69;59.29;98801.03;7291257;19;131227;-35
2023/08/27 10:00:34;;;;;;;152.27;10.07;;;;;;;25.69;59.83;98801.84;7284617;19;130192;-37
2023/08/27 10:02:59;;;;;;;135.57;9.32;;;;;;;25.70;59.46;98803.47;7287789;19;130046;-34
2023/08/27 10:05:31;;;;;;;108.17;7.37;;;;;;;25.73;60.39;98802.28;7289090;19;131559;-35
2023/08/27 10:07:59;;;;;;;194.30;11.65;;;;;;;25.74;59.99;98793.38;7292426;19;130089;-36
2023/08/27 10:10:26;;;;;;;143.90;9.48;;;;;;;25.74;59.70;98798.66;7288636;19;130079;-37
2023/08/27 10:12:53;;;;;;;186.63;11.88;;;;;;;25.61;59.76;98782.72;7285893;19;131201;-36
2023/08/27 10:15:18;;;;;;;134.90;9.57;;;;;;;25.72;59.84;98800.66;7287237;19;130013;-37
2023/08/27 10:17:45;;;;;;;216.73;13.30;;;;;;;25.72;59.44;98800.66;7285387;19;130711;-36
2023/08/27 10:20:11;;;;;;;138.50;9.15;;;;;;;25.72;60.27;98794.59;7290452;19;131980;-35
2023/08/27 10:22:37;;;;;;;142.50;9.30;;;;;;;25.74;59.99;98798.66;7285835;19;129818;-36
2023/08/27 10:25:06;;;;;;;204.40;13.20;;;;;;;25.74;60.93;98803.91;7284497;19;129404;-35
2023/08/27 10:27:32;;;;;;;186.10;11.38;;;;;;;25.77;59.60;98795.63;7289694;19;130162;-36
2023/08/27 10:29:58;;;;;;;131.40;8.97;;;;;;;25.70;60.38;98782.41;7285995;19;129119;-36
2023/08/27 10:32:24;;;;;;;177.13;11.50;;;;;;;25.73;59.48;98794.41;7281576;19;131240;-36
2023/08/27 10:34:50;;;;;;;178.57;11.27;;;;;;;25.75;60.18;98795.00;7285852;19;131673;-36
2023/08/27 10:37:17;;;;;;;139.23;8.90;;;;;;;25.80;59.71;98792.63;7289477;19;128814;-35
2023/08/27 10:39:42;;;;;;;157.23;10.88;;;;;;;25.75;60.32;98795.00;7284222;19;130353;-35
2023/08/27 10:42:08;;;;;;;288.53;18.00;;;;;;;25.73;59.88;98797.03;7281033;19;130014;-37
2023/08/27 10:44:33;;;;;;;168.97;11.27;;;;;;;25.65;59.95;98770.81;7279328;19;130049;-35
2023/08/27 10:47:14;;;;;;;249.27;16.07;;;;;;;25.77;60.97;98782.47;7285169;19;131311;-35
2023/08/27 10:49:42;;;;;;;209.93;13.55;;;;;;;25.79;60.00;98774.38;7281662;19;130524;-36
2023/08/27 10:52:18;;;;;;;186.20;13.10;;;;;;;25.70;61.33;98750.00;7288052;19;130444;-35
2023/08/27 10:54:47;;;;;;;132.83;10.30;;;;;;;25.80;60.98;98765.50;7282872;19;129956;-33
2023/08/27 10:57:21;;;;;;;166.88;12.32;;;;;;;25.73;61.19;98760.16;7280919;19;131508;-33
2023/08/27 10:59:47;;;;;;;189.20;13.38;;;;;;;25.82;60.59;98774.03;7283569;19;131120;-35
2023/08/27 11:02:14;;;;;;;187.80;13.00;;;;;;;25.78;61.15;98778.84;7291013;19;129560;-37
2023/08/27 11:04:42;;;;;;;136.63;10.23;;;;;;;25.76;59.61;98759.78;7288881;19;130989;-37